Terminal Aerodrome Forecast
Issued by NWS Buffalo, NY

Home | Current Version | Previous Version | Text Only | Print | Product List | Glossary On
Versions: 1 2 3 4 5 6 7 8 9 10 11 12 13 14 15 16 17 18 19 20 21 22 23 24 25 26 27 28
000
FTUS41 KBUF 231736
TAFBUF
TAF
KBUF 231736Z 2318/2418 24016G30KT P6SM OVC025
     FM232000 24018G31KT P6SM VCSH OVC015
      TEMPO 2400/2402 2SM -SHSNRA OVC007
     FM240300 26014G23KT P6SM OVC012
     FM241200 28011KT P6SM BKN025
     FM241500 30011KT P6SM BKN050
     FM241700 30011KT P6SM BKN120=

USA.gov is the U.S. government's official web portal to all federal, state and local government web resources and services.